Time;durP1;ratioP1;P1;durP2;ratioP2;P2;SDS_P1;SDS_P2;PMS_P1;PMS_P2;Temp;Humidity;BMP_temperature;BMP_pressure;BME280_temperature;BME280_humidity;BME280_pressure;Samples;Min_cycle;Max_cycle;Signal;HPM_P1;HPM_P2
2023/06/10 00:00:31;;;;;;;14.32;8.70;;;;;;;;;;5002592;28;20227;-79
2023/06/10 00:02:59;;;;;;;9.82;8.95;;;;;;;;;;4992938;28;20230;-79
2023/06/10 00:05:31;;;;;;;9.30;8.40;;;;;;;;;;5005296;28;20318;-79
2023/06/10 00:07:58;;;;;;;9.90;8.90;;;;;;;;;;4999165;28;20299;-79
2023/06/10 00:10:25;;;;;;;9.20;8.30;;;;;;;;;;5012184;28;20223;-79
2023/06/10 00:12:52;;;;;;;9.18;8.23;;;;;;;;;;5005842;28;20207;-79
2023/06/10 00:15:19;;;;;;;9.57;8.57;;;;;;;;;;5008619;28;20239;-79
2023/06/10 00:17:46;;;;;;;8.80;8.00;;;;;;;;;;5003991;28;20242;-79
2023/06/10 00:20:13;;;;;;;9.75;8.65;;;;;;;;;;5002315;28;20228;-79
2023/06/10 00:22:45;;;;;;;9.70;8.30;;;;;;;;;;4996858;28;20307;-79
2023/06/10 00:25:12;;;;;;;8.90;8.18;;;;;;;;;;5008779;28;20235;-79
2023/06/10 00:27:39;;;;;;;9.00;8.13;;;;;;;;;;5004001;28;20212;-79
2023/06/10 00:30:07;;;;;;;9.23;8.43;;;;;;;;;;5013672;28;20257;-79
2023/06/10 00:32:34;;;;;;;11.10;8.68;;;;;;;;;;5006628;28;20303;-79
2023/06/10 00:35:01;;;;;;;9.73;8.82;;;;;;;;;;5005884;28;20239;-79
2023/06/10 00:37:30;;;;;;;9.63;8.63;;;;;;;;;;5009713;28;20208;-79
2023/06/10 00:39:58;;;;;;;9.57;8.68;;;;;;;;;;5004955;28;20236;-79
2023/06/10 00:42:25;;;;;;;10.07;9.18;;;;;;;;;;5007662;28;20231;-78
2023/06/10 00:44:52;;;;;;;10.70;9.13;;;;;;;;;;5003161;28;20239;-78
2023/06/10 00:47:20;;;;;;;11.52;8.48;;;;;;;;;;5013536;28;20211;-79
2023/06/10 00:49:47;;;;;;;11.53;9.07;;;;;;;;;;5009207;28;20238;-79
2023/06/10 00:52:15;;;;;;;9.90;9.00;;;;;;;;;;5002604;28;20234;-78
2023/06/10 00:54:43;;;;;;;11.48;8.90;;;;;;;;;;5004872;28;20710;-79
2023/06/10 00:57:11;;;;;;;9.70;8.70;;;;;;;;;;5009996;28;20219;-79
2023/06/10 00:59:38;;;;;;;9.82;8.95;;;;;;;;;;5004032;28;20254;-79
2023/06/10 01:02:05;;;;;;;9.17;8.27;;;;;;;;;;5012536;28;20219;-79
2023/06/10 01:04:32;;;;;;;10.40;8.93;;;;;;;;;;5004684;28;20254;-79
2023/06/10 01:07:04;;;;;;;10.60;9.60;;;;;;;;;;5008954;28;20296;-79
2023/06/10 01:09:35;;;;;;;9.90;9.00;;;;;;;;;;5002159;28;20743;-79
2023/06/10 01:12:08;;;;;;;10.93;9.23;;;;;;;;;;5011479;28;20204;-79
2023/06/10 01:14:38;;;;;;;10.77;8.87;;;;;;;;;;5001838;28;20240;-79
2023/06/10 01:17:05;;;;;;;9.37;8.47;;;;;;;;;;5009351;28;20207;-79
2023/06/10 01:19:36;;;;;;;9.87;8.87;;;;;;;;;;5006001;28;20240;-79
2023/06/10 01:22:05;;;;;;;11.50;9.33;;;;;;;;;;5002703;28;20227;-79
2023/06/10 01:24:34;;;;;;;11.37;9.40;;;;;;;;;;5007451;28;20393;-79
2023/06/10 01:27:01;;;;;;;10.23;9.13;;;;;;;;;;5007545;28;20211;-79
2023/06/10 01:29:32;;;;;;;10.10;9.20;;;;;;;;;;5007504;28;20226;-78
2023/06/10 01:32:01;;;;;;;11.30;8.90;;;;;;;;;;5004169;28;20671;-79
2023/06/10 01:34:29;;;;;;;9.17;8.37;;;;;;;;;;5006693;28;20239;-79
2023/06/10 01:36:57;;;;;;;9.13;8.03;;;;;;;;;;5012580;28;20218;-79
2023/06/10 01:39:26;;;;;;;9.63;7.90;;;;;;;;;;5006380;28;20241;-79
2023/06/10 01:41:53;;;;;;;9.83;8.83;;;;;;;;;;5004252;28;20212;-79
2023/06/10 01:44:21;;;;;;;10.03;8.47;;;;;;;;;;5011716;28;20322;-79
2023/06/10 01:46:48;;;;;;;9.87;8.87;;;;;;;;;;5008680;28;20215;-79
2023/06/10 01:49:15;;;;;;;9.27;8.40;;;;;;;;;;4997306;28;20700;-78
2023/06/10 01:51:42;;;;;;;11.73;9.37;;;;;;;;;;5000580;28;20211;-79
2023/06/10 01:54:09;;;;;;;9.57;8.77;;;;;;;;;;4994422;28;20232;-79
2023/06/10 01:56:38;;;;;;;9.77;8.83;;;;;;;;;;5008206;28;20210;-81
2023/06/10 01:59:05;;;;;;;11.90;8.37;;;;;;;;;;5009294;28;20622;-81
2023/06/10 02:01:32;;;;;;;10.60;8.40;;;;;;;;;;4995634;28;20277;-81
2023/06/10 02:03:59;;;;;;;10.60;9.60;;;;;;;;;;5006397;28;20227;-81
2023/06/10 02:06:26;;;;;;;14.73;10.17;;;;;;;;;;5004218;28;20223;-81
2023/06/10 02:08:53;;;;;;;11.33;8.83;;;;;;;;;;5010102;28;20262;-80
2023/06/10 02:11:20;;;;;;;11.10;8.87;;;;;;;;;;5007778;28;20208;-81
2023/06/10 02:13:48;;;;;;;9.47;8.53;;;;;;;;;;4995072;28;20215;-81
2023/06/10 02:16:16;;;;;;;9.83;8.97;;;;;;;;;;5005350;28;20222;-80
2023/06/10 02:18:44;;;;;;;10.47;9.47;;;;;;;;;;5003974;28;20215;-81
2023/06/10 02:21:11;;;;;;;9.40;8.60;;;;;;;;;;5008397;28;20228;-81
2023/06/10 02:23:38;;;;;;;10.83;9.23;;;;;;;;;;5008694;28;20319;-81
2023/06/10 02:26:05;;;;;;;10.93;9.50;;;;;;;;;;5011743;28;20322;-81
2023/06/10 02:28:32;;;;;;;9.77;8.87;;;;;;;;;;4998041;28;20587;-81
2023/06/10 02:31:00;;;;;;;9.47;8.63;;;;;;;;;;5001456;28;20584;-81
2023/06/10 02:33:28;;;;;;;9.67;8.77;;;;;;;;;;5011614;28;20204;-81
2023/06/10 02:35:55;;;;;;;9.47;8.47;;;;;;;;;;5011071;28;20318;-81
2023/06/10 02:38:22;;;;;;;9.30;8.50;;;;;;;;;;5012048;28;20211;-81
2023/06/10 02:40:49;;;;;;;9.90;8.90;;;;;;;;;;5003233;28;20699;-82
2023/06/10 02:43:16;;;;;;;8.93;8.13;;;;;;;;;;5008309;28;20270;-81
2023/06/10 02:45:43;;;;;;;10.33;9.20;;;;;;;;;;4999700;28;20657;-81
2023/06/10 02:48:11;;;;;;;10.30;9.30;;;;;;;;;;4994692;28;20208;-81
2023/06/10 02:50:40;;;;;;;9.57;8.73;;;;;;;;;;5003319;28;20285;-81
2023/06/10 02:53:07;;;;;;;11.47;9.33;;;;;;;;;;5003342;28;20227;-81
2023/06/10 02:55:35;;;;;;;9.87;8.57;;;;;;;;;;4996969;28;20318;-81
2023/06/10 02:58:02;;;;;;;9.67;8.67;;;;;;;;;;5006384;28;20234;-81
2023/06/10 03:00:29;;;;;;;11.33;9.30;;;;;;;;;;5005491;28;20736;-81
2023/06/10 03:02:58;;;;;;;10.03;9.10;;;;;;;;;;5008459;28;20238;-81
2023/06/10 03:05:26;;;;;;;9.67;8.83;;;;;;;;;;5010598;28;20227;-81
2023/06/10 03:07:53;;;;;;;12.67;9.13;;;;;;;;;;5002935;28;20243;-81
2023/06/10 03:10:20;;;;;;;9.17;8.33;;;;;;;;;;5003157;28;20239;-80
2023/06/10 03:12:47;;;;;;;10.70;8.90;;;;;;;;;;5004493;28;20195;-81
2023/06/10 03:15:15;;;;;;;10.13;8.57;;;;;;;;;;5010408;28;20238;-81
2023/06/10 03:17:42;;;;;;;10.50;8.73;;;;;;;;;;5006393;28;20291;-81
2023/06/10 03:20:11;;;;;;;10.23;9.23;;;;;;;;;;4999953;28;20248;-80
2023/06/10 03:22:39;;;;;;;10.43;9.43;;;;;;;;;;4999994;28;20300;-81
2023/06/10 03:25:07;;;;;;;10.07;9.03;;;;;;;;;;4996654;28;20302;-81
2023/06/10 03:27:35;;;;;;;10.37;9.23;;;;;;;;;;4998725;28;20223;-81
2023/06/10 03:30:03;;;;;;;12.37;9.37;;;;;;;;;;4996377;28;20294;-81
2023/06/10 03:32:30;;;;;;;12.47;9.00;;;;;;;;;;5009229;28;20666;-81
2023/06/10 03:34:57;;;;;;;9.90;8.90;;;;;;;;;;5009644;28;20247;-81
2023/06/10 03:37:24;;;;;;;10.13;8.20;;;;;;;;;;5007692;28;20210;-80
2023/06/10 03:39:53;;;;;;;9.97;8.97;;;;;;;;;;5004767;28;20235;-81
2023/06/10 03:42:20;;;;;;;9.53;8.73;;;;;;;;;;5001625;28;20208;-81
2023/06/10 03:44:47;;;;;;;12.97;8.73;;;;;;;;;;4995100;28;20717;-81
2023/06/10 03:47:14;;;;;;;10.03;8.90;;;;;;;;;;5012303;28;20769;-81
2023/06/10 03:49:41;;;;;;;10.30;9.37;;;;;;;;;;5007811;28;20247;-81
2023/06/10 03:52:08;;;;;;;10.37;9.37;;;;;;;;;;5010827;28;20265;-81
2023/06/10 03:54:35;;;;;;;10.30;9.07;;;;;;;;;;5014336;28;20239;-81
2023/06/10 03:57:05;;;;;;;9.93;9.00;;;;;;;;;;5013685;28;20306;-81
2023/06/10 03:59:32;;;;;;;10.60;9.60;;;;;;;;;;5005329;28;20245;-81
2023/06/10 04:02:00;;;;;;;9.33;8.33;;;;;;;;;;5014461;28;20211;-81
2023/06/10 04:04:27;;;;;;;10.13;9.03;;;;;;;;;;5013975;28;20309;-81
2023/06/10 04:06:54;;;;;;;10.77;9.40;;;;;;;;;;5012311;28;20215;-80
2023/06/10 04:09:21;;;;;;;10.97;9.57;;;;;;;;;;5008713;28;20238;-80
2023/06/10 04:11:48;;;;;;;14.03;10.90;;;;;;;;;;5011605;28;20562;-81
2023/06/10 04:14:16;;;;;;;12.33;11.03;;;;;;;;;;5002573;28;20231;-80
2023/06/10 04:16:44;;;;;;;13.67;11.00;;;;;;;;;;5007567;28;20220;-81
2023/06/10 04:19:11;;;;;;;12.17;10.93;;;;;;;;;;5011025;28;20234;-80
2023/06/10 04:21:38;;;;;;;12.93;11.67;;;;;;;;;;5008806;28;20207;-81
2023/06/10 04:24:05;;;;;;;11.93;10.77;;;;;;;;;;4997004;28;20840;-81
2023/06/10 04:26:33;;;;;;;12.13;10.73;;;;;;;;;;5009296;28;20216;-81
2023/06/10 04:29:00;;;;;;;12.67;11.37;;;;;;;;;;5002280;28;20274;-80
2023/06/10 04:31:28;;;;;;;13.03;11.73;;;;;;;;;;5002937;28;20569;-81
2023/06/10 04:33:55;;;;;;;12.80;11.53;;;;;;;;;;5009814;28;20212;-80
2023/06/10 04:36:23;;;;;;;12.50;11.20;;;;;;;;;;5005101;28;20680;-81
2023/06/10 04:38:51;;;;;;;13.07;11.67;;;;;;;;;;5013711;28;20298;-80
2023/06/10 04:41:19;;;;;;;13.27;11.87;;;;;;;;;;5013783;28;20681;-81
2023/06/10 04:43:46;;;;;;;17.37;13.17;;;;;;;;;;5006845;28;20312;-81
2023/06/10 04:46:13;;;;;;;15.60;13.47;;;;;;;;;;5002015;28;20232;-82
2023/06/10 04:48:42;;;;;;;14.50;12.23;;;;;;;;;;5002434;28;20698;-81
2023/06/10 04:51:09;;;;;;;15.67;12.97;;;;;;;;;;5003941;28;20235;-81
2023/06/10 04:53:36;;;;;;;16.27;14.17;;;;;;;;;;5013590;28;20211;-81
2023/06/10 04:56:03;;;;;;;15.37;13.80;;;;;;;;;;5003992;28;20246;-81
2023/06/10 04:58:30;;;;;;;17.17;15.57;;;;;;;;;;5012586;28;20211;-81
2023/06/10 05:00:57;;;;;;;15.87;14.20;;;;;;;;;;5004952;28;20238;-82
2023/06/10 05:03:24;;;;;;;16.50;14.80;;;;;;;;;;5013422;28;20258;-82
2023/06/10 05:05:53;;;;;;;16.03;14.40;;;;;;;;;;4997991;28;20295;-82
2023/06/10 05:08:20;;;;;;;15.30;13.70;;;;;;;;;;5013455;28;20207;-81
2023/06/10 05:10:47;;;;;;;15.93;14.43;;;;;;;;;;5012914;28;20661;-82
2023/06/10 05:13:14;;;;;;;15.80;14.23;;;;;;;;;;5013278;28;20218;-81
2023/06/10 05:15:44;;;;;;;15.57;13.53;;;;;;;;;;5000611;28;20232;-82
2023/06/10 05:18:11;;;;;;;14.73;13.23;;;;;;;;;;5013292;28;20220;-82
2023/06/10 05:20:39;;;;;;;16.00;14.50;;;;;;;;;;5004553;28;20641;-82
2023/06/10 05:23:07;;;;;;;16.97;15.20;;;;;;;;;;5004811;28;20246;-82
2023/06/10 05:25:35;;;;;;;16.40;14.57;;;;;;;;;;5012743;28;20242;-81
2023/06/10 05:28:02;;;;;;;16.20;14.50;;;;;;;;;;5004443;28;20614;-81
2023/06/10 05:30:29;;;;;;;19.83;15.00;;;;;;;;;;5003087;28;20245;-83
2023/06/10 05:32:57;;;;;;;17.30;15.20;;;;;;;;;;5009862;28;20214;-82
2023/06/10 05:35:24;;;;;;;16.83;14.53;;;;;;;;;;4999732;28;20239;-84
2023/06/10 05:37:51;;;;;;;15.50;13.80;;;;;;;;;;5009321;28;20211;-85
2023/06/10 05:40:20;;;;;;;17.90;13.40;;;;;;;;;;5000255;28;20239;-85
2023/06/10 05:42:47;;;;;;;15.40;13.70;;;;;;;;;;4996476;28;20266;-85
2023/06/10 05:45:14;;;;;;;16.13;14.37;;;;;;;;;;5007903;28;20289;-84
2023/06/10 05:47:41;;;;;;;13.97;12.70;;;;;;;;;;5002360;28;20212;-87
2023/06/10 05:50:09;;;;;;;14.73;12.87;;;;;;;;;;4993259;28;20286;-84
2023/06/10 05:52:36;;;;;;;14.23;12.87;;;;;;;;;;4995908;28;20238;-85
2023/06/10 05:55:03;;;;;;;14.37;12.87;;;;;;;;;;5003800;28;20227;-85
2023/06/10 05:57:32;;;;;;;14.50;13.10;;;;;;;;;;5008714;28;20211;-85
2023/06/10 05:59:59;;;;;;;13.37;11.13;;;;;;;;;;5005980;28;20235;-83
2023/06/10 06:02:26;;;;;;;13.90;12.53;;;;;;;;;;5000762;28;20247;-82
2023/06/10 06:04:53;;;;;;;13.27;11.87;;;;;;;;;;5002385;28;20243;-81
2023/06/10 06:07:20;;;;;;;19.83;11.57;;;;;;;;;;4998405;28;20219;-82
2023/06/10 06:09:47;;;;;;;12.97;11.77;;;;;;;;;;4997828;28;20254;-81
2023/06/10 06:12:15;;;;;;;11.83;9.63;;;;;;;;;;5000873;28;20224;-81
2023/06/10 06:14:44;;;;;;;11.63;9.43;;;;;;;;;;5001339;28;20315;-82
2023/06/10 06:17:12;;;;;;;9.93;8.88;;;;;;;;;;4996858;28;20687;-82
2023/06/10 06:19:39;;;;;;;8.98;8.07;;;;;;;;;;5006526;28;20699;-83
2023/06/10 06:22:06;;;;;;;8.98;8.07;;;;;;;;;;5006951;28;20203;-82
2023/06/10 06:24:33;;;;;;;9.32;7.90;;;;;;;;;;5000239;28;20236;-82
2023/06/10 06:27:00;;;;;;;14.65;8.07;;;;;;;;;;5003591;28;20211;-83
2023/06/10 06:29:29;;;;;;;13.43;8.90;;;;;;;;;;4997197;28;20597;-83
2023/06/10 06:31:58;;;;;;;8.35;7.50;;;;;;;;;;4996350;28;20208;-83
2023/06/10 06:34:25;;;;;;;8.82;7.57;;;;;;;;;;5006026;28;20283;-83
2023/06/10 06:36:52;;;;;;;8.05;7.25;;;;;;;;;;4996698;28;20210;-82
2023/06/10 06:39:19;;;;;;;8.15;7.35;;;;;;;;;;5004157;28;20686;-85
2023/06/10 06:41:46;;;;;;;8.88;7.60;;;;;;;;;;5003082;28;20208;-82
2023/06/10 06:44:13;;;;;;;7.28;6.68;;;;;;;;;;4998749;28;20298;-82
2023/06/10 06:46:40;;;;;;;7.00;6.38;;;;;;;;;;4998847;28;20582;-82
2023/06/10 06:49:08;;;;;;;8.05;7.20;;;;;;;;;;5009155;28;20215;-81
2023/06/10 06:51:35;;;;;;;7.57;6.78;;;;;;;;;;5002746;28;20207;-81
2023/06/10 06:54:02;;;;;;;7.03;6.43;;;;;;;;;;5003517;28;20658;-81
2023/06/10 06:56:29;;;;;;;9.15;6.40;;;;;;;;;;5001705;28;20227;-81
2023/06/10 06:58:56;;;;;;;6.88;6.07;;;;;;;;;;5007684;28;20212;-81
2023/06/10 07:01:23;;;;;;;6.72;5.85;;;;;;;;;;5006339;28;20266;-81
2023/06/10 07:03:50;;;;;;;7.93;6.35;;;;;;;;;;5009335;28;20223;-80
2023/06/10 07:06:19;;;;;;;6.65;6.05;;;;;;;;;;5000942;28;20294;-81
2023/06/10 07:08:46;;;;;;;7.55;6.20;;;;;;;;;;5001651;28;20218;-82
2023/06/10 07:11:13;;;;;;;7.65;5.68;;;;;;;;;;5004950;28;20623;-81
2023/06/10 07:13:40;;;;;;;7.63;5.28;;;;;;;;;;5010547;28;20670;-80
2023/06/10 07:16:07;;;;;;;6.55;5.57;;;;;;;;;;5004145;28;20243;-80
2023/06/10 07:18:34;;;;;;;6.07;5.30;;;;;;;;;;4998138;28;20239;-80
2023/06/10 07:21:01;;;;;;;6.03;5.43;;;;;;;;;;5010225;28;20241;-81
2023/06/10 07:23:30;;;;;;;5.50;5.00;;;;;;;;;;5011743;28;20208;-82
2023/06/10 07:25:57;;;;;;;8.02;6.15;;;;;;;;;;5002300;28;20243;-82
2023/06/10 07:28:24;;;;;;;7.20;6.13;;;;;;;;;;5009578;28;20211;-82
2023/06/10 07:30:51;;;;;;;7.28;6.57;;;;;;;;;;5011913;28;20231;-82
2023/06/10 07:33:18;;;;;;;6.75;6.07;;;;;;;;;;5007906;28;20216;-83
2023/06/10 07:35:45;;;;;;;6.93;6.22;;;;;;;;;;5005363;28;20247;-83
2023/06/10 07:38:12;;;;;;;7.13;5.60;;;;;;;;;;5007489;28;20215;-82
2023/06/10 07:40:40;;;;;;;8.18;6.00;;;;;;;;;;5004310;28;20235;-88
2023/06/10 07:43:07;;;;;;;7.50;5.97;;;;;;;;;;5007570;28;20212;-90
2023/06/10 07:45:34;;;;;;;6.93;5.88;;;;;;;;;;5014973;28;20721;-89
2023/06/10 07:48:01;;;;;;;6.68;5.97;;;;;;;;;;5000596;28;20223;-89
2023/06/10 07:50:28;;;;;;;6.43;5.38;;;;;;;;;;5004258;28;20232;-90
2023/06/10 07:52:55;;;;;;;7.65;5.28;;;;;;;;;;4996244;28;20710;-89
2023/06/10 07:55:22;;;;;;;6.85;5.25;;;;;;;;;;5012201;28;20669;-86
2023/06/10 07:57:51;;;;;;;6.28;5.68;;;;;;;;;;5009469;28;20208;-86
2023/06/10 08:00:18;;;;;;;6.38;5.25;;;;;;;;;;5006524;28;20238;-84
2023/06/10 08:02:45;;;;;;;6.90;5.65;;;;;;;;;;5002194;28;20630;-86
2023/06/10 08:05:12;;;;;;;6.65;5.72;;;;;;;;;;5021090;28;20234;-85
2023/06/10 08:07:40;;;;;;;6.93;5.57;;;;;;;;;;5007615;28;20215;-85
2023/06/10 08:10:08;;;;;;;5.97;5.10;;;;;;;;;;5010117;28;20245;-85
2023/06/10 08:12:35;;;;;;;6.88;6.10;;;;;;;;;;5005583;28;20243;-85
2023/06/10 08:15:04;;;;;;;6.15;5.55;;;;;;;;;;5005140;28;20235;-84
2023/06/10 08:17:31;;;;;;;8.32;5.70;;;;;;;;;;5002552;28;20606;-84
2023/06/10 08:19:58;;;;;;;9.88;5.85;;;;;;;;;;4997426;28;20741;-84
2023/06/10 08:22:25;;;;;;;6.88;6.18;;;;;;;;;;5012226;28;20305;-85
2023/06/10 08:24:52;;;;;;;7.15;6.50;;;;;;;;;;5006757;28;20239;-84
2023/06/10 08:27:19;;;;;;;7.00;5.80;;;;;;;;;;5002295;28;20289;-85
2023/06/10 08:29:46;;;;;;;5.95;5.38;;;;;;;;;;5001410;28;20263;-85
2023/06/10 08:32:15;;;;;;;6.60;5.95;;;;;;;;;;5004001;28;20210;-85
2023/06/10 08:34:42;;;;;;;5.38;4.75;;;;;;;;;;5005935;28;20242;-85
2023/06/10 08:37:09;;;;;;;6.88;5.50;;;;;;;;;;5012964;28;20211;-84
2023/06/10 08:39:36;;;;;;;5.80;5.20;;;;;;;;;;5008395;28;20640;-83
2023/06/10 08:42:07;;;;;;;5.93;5.40;;;;;;;;;;5012784;28;20222;-84
2023/06/10 08:44:38;;;;;;;5.97;5.43;;;;;;;;;;5009174;28;20232;-83
2023/06/10 08:47:08;;;;;;;5.50;5.00;;;;;;;;;;5009377;28;20215;-82
2023/06/10 08:49:39;;;;;;;6.38;5.25;;;;;;;;;;5008827;28;20241;-83
2023/06/10 08:52:07;;;;;;;5.70;5.15;;;;;;;;;;5003083;28;20219;-82
2023/06/10 08:54:37;;;;;;;5.68;5.07;;;;;;;;;;5004476;28;20231;-82
2023/06/10 08:57:05;;;;;;;6.78;5.40;;;;;;;;;;5006283;28;20207;-82
2023/06/10 08:59:33;;;;;;;5.50;5.00;;;;;;;;;;5007295;28;20235;-83
2023/06/10 09:02:00;;;;;;;5.65;5.13;;;;;;;;;;5002500;28;20291;-80
2023/06/10 09:04:27;;;;;;;5.90;5.40;;;;;;;;;;5007133;28;20238;-80
2023/06/10 09:06:55;;;;;;;5.57;4.97;;;;;;;;;;5007145;28;20212;-84
2023/06/10 09:09:24;;;;;;;6.63;5.00;;;;;;;;;;4994482;28;20941;-83
2023/06/10 09:11:51;;;;;;;5.85;5.32;;;;;;;;;;5001188;28;20212;-83
2023/06/10 09:14:18;;;;;;;8.30;4.78;;;;;;;;;;5009427;28;20235;-83
2023/06/10 09:16:46;;;;;;;7.00;5.45;;;;;;;;;;5000050;28;20215;-84
2023/06/10 09:19:13;;;;;;;5.70;5.20;;;;;;;;;;5010738;28;20318;-84
2023/06/10 09:21:40;;;;;;;6.90;5.07;;;;;;;;;;5010649;28;20207;-84
2023/06/10 09:24:09;;;;;;;6.45;5.10;;;;;;;;;;5004651;28;20231;-84
2023/06/10 09:26:36;;;;;;;5.10;4.63;;;;;;;;;;4999874;28;20227;-84
2023/06/10 09:29:06;;;;;;;7.88;6.03;;;;;;;;;;5012095;28;20223;-83
2023/06/10 09:31:35;;;;;;;5.22;4.72;;;;;;;;;;5009236;28;20204;-85
2023/06/10 09:34:09;;;;;;;4.55;4.13;;;;;;;;;;4999673;28;20236;-83
2023/06/10 09:36:37;;;;;;;4.60;4.20;;;;;;;;;;5008920;28;20219;-83
2023/06/10 09:39:04;;;;;;;4.85;4.30;;;;;;;;;;4999709;28;20212;-83
2023/06/10 09:41:36;;;;;;;4.85;4.45;;;;;;;;;;5000766;28;22006;-84
2023/06/10 09:44:03;;;;;;;4.78;4.30;;;;;;;;;;4998029;28;20235;-85
2023/06/10 09:46:33;;;;;;;4.78;4.30;;;;;;;;;;5001370;28;20235;-83
2023/06/10 09:49:00;;;;;;;5.57;4.60;;;;;;;;;;5000408;28;20208;-84
2023/06/10 09:51:27;;;;;;;5.78;4.20;;;;;;;;;;5008394;28;20212;-84
2023/06/10 09:53:54;;;;;;;5.68;4.40;;;;;;;;;;4999414;28;20220;-83
2023/06/10 09:56:23;;;;;;;4.75;4.30;;;;;;;;;;5008282;28;20210;-83
2023/06/10 09:58:54;;;;;;;4.70;4.25;;;;;;;;;;5010742;28;20238;-84
2023/06/10 10:01:21;;;;;;;6.00;3.85;;;;;;;;;;5003898;28;20203;-84
2023/06/10 10:03:49;;;;;;;4.30;4.00;;;;;;;;;;5011303;28;20207;-85
2023/06/10 10:06:17;;;;;;;4.05;3.70;;;;;;;;;;4995387;28;20231;-84
2023/06/10 10:08:44;;;;;;;3.85;3.20;;;;;;;;;;5011858;28;20211;-84
2023/06/10 10:11:11;;;;;;;4.72;3.33;;;;;;;;;;5005725;28;20240;-84
2023/06/10 10:13:39;;;;;;;4.00;3.42;;;;;;;;;;5011055;28;20295;-87
2023/06/10 10:16:08;;;;;;;3.40;3.10;;;;;;;;;;5002739;28;20227;-84
2023/06/10 10:18:37;;;;;;;3.33;3.10;;;;;;;;;;5003011;28;20221;-83
2023/06/10 10:21:07;;;;;;;3.22;2.92;;;;;;;;;;4995676;28;20283;-84
2023/06/10 10:23:36;;;;;;;3.72;3.42;;;;;;;;;;5009992;28;20215;-84
2023/06/10 10:26:06;;;;;;;5.85;3.25;;;;;;;;;;5010572;28;20721;-84
2023/06/10 10:28:37;;;;;;;4.55;3.50;;;;;;;;;;5008808;28;20207;-83
2023/06/10 10:31:11;;;;;;;3.60;3.30;;;;;;;;;;5002540;28;20305;-84
2023/06/10 10:33:43;;;;;;;3.63;3.00;;;;;;;;;;5002634;28;20211;-84
2023/06/10 10:36:11;;;;;;;4.30;3.40;;;;;;;;;;5010438;28;20242;-85
2023/06/10 10:38:38;;;;;;;7.85;3.40;;;;;;;;;;5008355;28;20222;-86
2023/06/10 10:41:05;;;;;;;7.57;3.10;;;;;;;;;;5003630;28;20239;-86
2023/06/10 10:43:32;;;;;;;3.78;3.40;;;;;;;;;;4992573;28;20289;-85
2023/06/10 10:46:00;;;;;;;5.30;3.40;;;;;;;;;;5005286;28;20668;-86
2023/06/10 10:48:29;;;;;;;4.63;3.03;;;;;;;;;;5010710;28;20251;-84
2023/06/10 10:50:59;;;;;;;4.47;3.38;;;;;;;;;;5003709;28;20261;-88
2023/06/10 10:53:26;;;;;;;3.08;2.78;;;;;;;;;;5001145;28;20203;-86
2023/06/10 10:55:59;;;;;;;3.67;3.05;;;;;;;;;;4992025;28;20226;-82
2023/06/10 10:58:27;;;;;;;3.20;2.90;;;;;;;;;;5000223;28;20235;-85
2023/06/10 11:00:54;;;;;;;3.10;2.80;;;;;;;;;;5002848;28;20245;-85
2023/06/10 11:03:21;;;;;;;2.80;2.60;;;;;;;;;;5010933;28;20211;-83
2023/06/10 11:05:49;;;;;;;3.33;3.03;;;;;;;;;;5010204;28;20235;-81
2023/06/10 11:08:37;;;;;;;3.80;2.90;;;;;;;;;;5010407;28;20234;-82
2023/06/10 11:11:19;;;;;;;3.15;2.95;;;;;;;;;;4996214;28;20226;-82
2023/06/10 11:13:59;;;;;;;3.60;3.30;;;;;;;;;;4994987;28;20836;-83
2023/06/10 11:16:27;;;;;;;3.05;2.78;;;;;;;;;;5008903;28;20234;-84
2023/06/10 11:18:55;;;;;;;5.13;3.10;;;;;;;;;;4995365;28;20218;-82
2023/06/10 11:21:24;;;;;;;3.10;2.80;;;;;;;;;;4995021;28;20200;-85
2023/06/10 11:23:53;;;;;;;3.10;2.80;;;;;;;;;;5009817;28;20209;-78
2023/06/10 11:26:35;;;;;;;3.70;3.10;;;;;;;;;;5002063;28;20227;-80
2023/06/10 11:29:11;;;;;;;2.72;2.55;;;;;;;;;;5004621;28;20246;-79
2023/06/10 11:31:57;;;;;;;3.50;3.08;;;;;;;;;;5010174;28;20228;-80
2023/06/10 11:34:26;;;;;;;3.28;2.97;;;;;;;;;;5001465;28;20234;-79
2023/06/10 11:36:54;;;;;;;2.85;2.65;;;;;;;;;;5010087;28;20230;-80
2023/06/10 11:39:26;;;;;;;2.60;2.40;;;;;;;;;;4993554;28;20231;-80
2023/06/10 11:41:53;;;;;;;2.80;2.55;;;;;;;;;;5004481;28;20214;-80
2023/06/10 11:44:20;;;;;;;2.88;2.67;;;;;;;;;;4995546;28;20318;-80
2023/06/10 11:46:49;;;;;;;3.70;2.63;;;;;;;;;;5008410;28;20223;-80
2023/06/10 11:49:16;;;;;;;3.20;2.90;;;;;;;;;;5001161;28;20234;-80
2023/06/10 11:51:49;;;;;;;2.67;2.50;;;;;;;;;;5005672;28;20214;-80
2023/06/10 11:54:17;;;;;;;3.08;2.75;;;;;;;;;;5008694;28;20249;-80
2023/06/10 11:56:45;;;;;;;4.53;3.20;;;;;;;;;;5000726;28;20207;-79
2023/06/10 11:59:12;;;;;;;3.28;3.03;;;;;;;;;;4997379;28;20238;-79
2023/06/10 12:01:43;;;;;;;3.30;2.70;;;;;;;;;;5005513;28;20215;-80
2023/06/10 12:04:10;;;;;;;5.07;2.92;;;;;;;;;;4992447;28;20243;-80
2023/06/10 12:06:44;;;;;;;3.95;2.97;;;;;;;;;;5000649;28;20270;-80
2023/06/10 12:09:20;;;;;;;3.35;3.05;;;;;;;;;;5010887;28;20235;-79
2023/06/10 12:11:50;;;;;;;2.83;2.63;;;;;;;;;;5011059;28;20210;-80
2023/06/10 12:14:17;;;;;;;3.47;3.17;;;;;;;;;;5003450;28;20243;-80
2023/06/10 12:16:50;;;;;;;3.85;3.00;;;;;;;;;;5008338;28;20673;-80
2023/06/10 12:19:17;;;;;;;2.70;2.50;;;;;;;;;;5012965;28;20329;-79
2023/06/10 12:21:46;;;;;;;4.32;3.03;;;;;;;;;;5008379;28;20548;-80
2023/06/10 12:24:13;;;;;;;3.30;2.88;;;;;;;;;;5011531;28;20238;-80
2023/06/10 12:26:41;;;;;;;4.18;2.97;;;;;;;;;;5012104;28;20227;-79
2023/06/10 12:29:24;;;;;;;2.95;2.75;;;;;;;;;;5011696;28;20210;-79
2023/06/10 12:31:58;;;;;;;3.67;3.00;;;;;;;;;;5008875;28;20210;-79
2023/06/10 12:34:32;;;;;;;3.00;2.75;;;;;;;;;;5001711;28;20235;-80
2023/06/10 12:37:00;;;;;;;5.15;3.35;;;;;;;;;;5012534;28;20198;-79
2023/06/10 12:39:27;;;;;;;3.63;3.13;;;;;;;;;;4998151;28;20829;-79
2023/06/10 12:41:54;;;;;;;3.28;3.00;;;;;;;;;;5001238;28;20204;-79
2023/06/10 12:44:31;;;;;;;3.53;2.95;;;;;;;;;;5001081;28;20728;-79
2023/06/10 12:46:58;;;;;;;3.63;3.33;;;;;;;;;;5005881;28;20223;-79
2023/06/10 12:49:26;;;;;;;3.53;3.20;;;;;;;;;;5008154;28;20604;-79
2023/06/10 12:51:53;;;;;;;3.00;2.80;;;;;;;;;;5004956;28;20202;-79
2023/06/10 12:54:20;;;;;;;4.95;2.78;;;;;;;;;;5004028;28;20238;-79
2023/06/10 12:56:47;;;;;;;3.47;3.13;;;;;;;;;;5006698;28;20202;-79
2023/06/10 12:59:14;;;;;;;3.58;3.15;;;;;;;;;;5005425;28;20330;-79
2023/06/10 13:01:42;;;;;;;3.33;3.10;;;;;;;;;;5003635;28;20215;-79
2023/06/10 13:04:09;;;;;;;3.95;3.63;;;;;;;;;;5006277;28;20697;-80
2023/06/10 13:06:39;;;;;;;3.58;3.28;;;;;;;;;;5004373;28;20219;-80
2023/06/10 13:09:08;;;;;;;3.03;2.83;;;;;;;;;;5011480;28;20206;-78
2023/06/10 13:11:35;;;;;;;5.15;3.40;;;;;;;;;;5012757;28;20262;-79
2023/06/10 13:14:04;;;;;;;3.45;3.10;;;;;;;;;;5011646;28;20277;-79
2023/06/10 13:16:31;;;;;;;3.45;3.10;;;;;;;;;;5012355;28;20206;-79
2023/06/10 13:19:00;;;;;;;5.55;3.58;;;;;;;;;;5010893;28;20198;-80
2023/06/10 13:21:27;;;;;;;3.72;3.33;;;;;;;;;;5012506;28;20206;-79
2023/06/10 13:23:54;;;;;;;4.25;3.40;;;;;;;;;;5011216;28;20198;-79
2023/06/10 13:26:21;;;;;;;6.10;3.80;;;;;;;;;;5011624;28;20321;-79
2023/06/10 13:28:49;;;;;;;3.17;2.92;;;;;;;;;;5011787;28;20199;-79
2023/06/10 13:31:16;;;;;;;4.57;3.50;;;;;;;;;;5007356;28;20207;-78
2023/06/10 13:33:43;;;;;;;3.58;3.22;;;;;;;;;;5006896;28;20457;-79
2023/06/10 13:36:12;;;;;;;4.10;2.90;;;;;;;;;;5002865;28;20227;-82
2023/06/10 13:38:39;;;;;;;5.30;3.28;;;;;;;;;;5002080;28;20253;-80
2023/06/10 13:41:06;;;;;;;3.70;3.40;;;;;;;;;;5005549;28;20234;-80
2023/06/10 13:43:33;;;;;;;3.40;3.10;;;;;;;;;;5002419;28;20241;-80
2023/06/10 13:46:00;;;;;;;3.42;3.13;;;;;;;;;;5003010;28;20577;-80
2023/06/10 13:48:27;;;;;;;4.57;3.28;;;;;;;;;;5003733;28;20212;-79
2023/06/10 13:50:54;;;;;;;3.42;3.13;;;;;;;;;;5003038;28;20222;-79
2023/06/10 13:53:23;;;;;;;4.07;3.30;;;;;;;;;;5003448;28;20204;-80
2023/06/10 13:55:50;;;;;;;10.15;3.75;;;;;;;;;;4999742;28;20239;-80
2023/06/10 13:58:17;;;;;;;3.53;3.22;;;;;;;;;;4999790;28;20667;-78
2023/06/10 14:00:44;;;;;;;3.63;3.10;;;;;;;;;;5001878;28;20236;-79
2023/06/10 14:03:11;;;;;;;3.88;3.58;;;;;;;;;;5004869;28;20218;-78
2023/06/10 14:05:38;;;;;;;3.75;3.45;;;;;;;;;;5002391;28;20242;-78
2023/06/10 14:08:06;;;;;;;4.28;3.25;;;;;;;;;;5001712;28;20231;-78
2023/06/10 14:10:34;;;;;;;4.30;3.03;;;;;;;;;;5002412;28;20235;-78
2023/06/10 14:13:01;;;;;;;3.90;3.22;;;;;;;;;;5000904;28;20204;-78
2023/06/10 14:15:28;;;;;;;5.55;3.42;;;;;;;;;;5002341;28;20233;-79
2023/06/10 14:17:55;;;;;;;3.63;3.33;;;;;;;;;;5001570;28;20196;-78
2023/06/10 14:20:23;;;;;;;3.45;3.25;;;;;;;;;;5005470;28;20239;-79
2023/06/10 14:22:50;;;;;;;3.10;2.70;;;;;;;;;;5002683;28;20236;-78
2023/06/10 14:25:17;;;;;;;3.33;3.03;;;;;;;;;;5002857;28;20234;-78
2023/06/10 14:27:46;;;;;;;3.03;2.78;;;;;;;;;;5000981;28;20224;-78
2023/06/10 14:30:14;;;;;;;3.28;3.03;;;;;;;;;;5005564;28;20239;-78
2023/06/10 14:32:41;;;;;;;3.72;3.42;;;;;;;;;;5001925;28;20211;-78
2023/06/10 14:35:08;;;;;;;3.13;2.72;;;;;;;;;;5002740;28;20242;-77
2023/06/10 14:37:35;;;;;;;4.43;3.45;;;;;;;;;;5005866;28;20614;-78
2023/06/10 14:40:02;;;;;;;3.92;3.10;;;;;;;;;;5001336;28;20228;-77
2023/06/10 14:42:31;;;;;;;3.50;3.08;;;;;;;;;;5002088;28;20207;-77